Time;durP1;ratioP1;P1;durP2;ratioP2;P2;SDS_P1;SDS_P2;PMS_P1;PMS_P2;Temp;Humidity;BMP_temperature;BMP_pressure;BME280_temperature;BME280_humidity;BME280_pressure;Samples;Min_cycle;Max_cycle;Signal;HPM_P1;HPM_P2
2023/12/23 00:02:51;;;;;;;9.40;2.70;;;;;;;1.14;75.47;97305.11;222412;1234;61321;-76
2023/12/23 00:07:43;;;;;;;7.10;2.80;;;;;;;1.16;75.32;97311.24;222617;1229;61270;-77
2023/12/23 00:12:36;;;;;;;12.60;2.80;;;;;;;1.19;75.13;97310.05;222523;1228;71406;-77
2023/12/23 00:17:34;;;;;;;6.40;2.30;;;;;;;1.21;75.06;97306.30;222522;1229;61207;-76
2023/12/23 00:22:29;;;;;;;5.70;2.60;;;;;;;1.22;74.64;97308.19;222564;1228;68244;-76
2023/12/23 00:27:37;;;;;;;9.00;2.30;;;;;;;1.24;74.69;97314.14;222552;1228;61714;-76
2023/12/23 00:32:50;;;;;;;7.50;2.40;;;;;;;1.24;73.76;97317.23;222596;1229;73139;-77
2023/12/23 00:37:51;;;;;;;6.30;2.10;;;;;;;1.26;74.11;97320.11;222388;1228;72515;-77
2023/12/23 00:43:17;;;;;;;6.80;1.90;;;;;;;1.27;74.38;97336.48;222550;1228;61321;-77
2023/12/23 00:48:36;;;;;;;7.70;2.80;;;;;;;1.28;74.14;97343.84;222516;1228;68763;-77
2023/12/23 00:53:44;;;;;;;7.70;1.80;;;;;;;1.29;74.25;97343.33;222423;1233;61384;-78
2023/12/23 00:58:40;;;;;;;13.60;4.30;;;;;;;1.28;73.86;97343.83;222589;1228;74797;-77
2023/12/23 01:03:31;;;;;;;7.90;2.30;;;;;;;1.27;73.42;97342.96;222462;1229;61190;-77
2023/12/23 01:08:25;;;;;;;7.70;2.80;;;;;;;1.27;73.36;97346.21;222551;1228;61249;-77
2023/12/23 01:13:17;;;;;;;4.60;1.70;;;;;;;1.27;73.35;97357.14;222700;1228;72605;-78
2023/12/23 01:18:11;;;;;;;7.80;2.30;;;;;;;1.27;72.71;97363.45;222697;1228;61319;-77
2023/12/23 01:23:06;;;;;;;8.70;2.10;;;;;;;1.26;73.11;97365.85;222290;1228;64869;-77
2023/12/23 01:28:04;;;;;;;6.10;1.70;;;;;;;1.24;72.68;97368.90;222588;1229;61254;-77
2023/12/23 01:32:55;;;;;;;5.30;1.70;;;;;;;1.24;73.00;97375.23;222309;1229;73646;-77
2023/12/23 01:37:47;;;;;;;11.70;3.60;;;;;;;1.22;72.92;97376.25;222333;1228;61312;-77
2023/12/23 01:42:39;;;;;;;4.60;1.60;;;;;;;1.20;72.64;97383.92;222698;1228;61297;-77
2023/12/23 01:47:31;;;;;;;8.30;2.00;;;;;;;1.18;72.63;97398.26;222567;1229;70839;-77
2023/12/23 01:52:24;;;;;;;6.30;1.60;;;;;;;1.15;72.77;97399.27;222564;1229;61221;-78
2023/12/23 01:57:17;;;;;;;4.50;1.60;;;;;;;1.12;72.35;97396.88;222236;1229;61229;-78
2023/12/23 02:02:12;;;;;;;4.90;1.30;;;;;;;1.10;72.33;97409.50;222198;1232;61217;-77
2023/12/23 02:07:03;;;;;;;5.60;1.70;;;;;;;1.09;72.46;97416.67;222511;1233;61338;-78
2023/12/23 02:12:32;;;;;;;8.40;2.20;;;;;;;1.08;72.12;97424.34;222671;1228;78329;-77
2023/12/23 02:17:25;;;;;;;7.00;1.70;;;;;;;1.07;72.44;97425.71;222615;1233;61240;-77
2023/12/23 02:22:18;;;;;;;9.40;3.00;;;;;;;1.05;72.68;97427.90;222617;1229;61117;-77
2023/12/23 02:27:23;;;;;;;5.50;1.80;;;;;;;1.00;72.21;97431.32;222471;1229;61222;-77
2023/12/23 02:32:34;;;;;;;7.90;1.80;;;;;;;0.96;71.94;97433.52;222700;1228;74603;-77
2023/12/23 02:37:33;;;;;;;4.50;1.30;;;;;;;0.95;72.08;97443.60;222739;1233;71289;-78
2023/12/23 02:42:24;;;;;;;5.70;2.50;;;;;;;0.95;72.10;97451.09;222471;1232;61232;-77
2023/12/23 02:47:31;;;;;;;4.30;2.10;;;;;;;0.95;72.14;97457.91;222626;1233;61340;-77
2023/12/23 02:52:23;;;;;;;6.50;1.80;;;;;;;0.95;71.95;97459.27;222710;1233;61258;-78
2023/12/23 02:57:19;;;;;;;4.60;1.60;;;;;;;0.95;71.87;97459.45;222752;1228;74344;-78
2023/12/23 03:02:10;;;;;;;5.20;1.40;;;;;;;0.93;71.98;97463.69;222637;1228;61299;-78
2023/12/23 03:07:02;;;;;;;9.90;3.10;;;;;;;0.92;72.26;97464.20;222733;1229;61353;-77
2023/12/23 03:11:53;;;;;;;6.50;1.70;;;;;;;0.92;71.94;97474.10;222572;1228;73050;-77
2023/12/23 03:16:45;;;;;;;4.50;1.40;;;;;;;0.91;72.02;97489.27;222270;1229;61257;-78
2023/12/23 03:21:44;;;;;;;4.30;1.70;;;;;;;0.91;72.13;97493.87;222400;1228;61298;-78
2023/12/23 03:26:39;;;;;;;3.10;1.70;;;;;;;0.90;72.49;97504.45;222398;1229;61199;-77
2023/12/23 03:31:30;;;;;;;6.10;1.40;;;;;;;0.90;72.24;97518.27;222381;1229;65801;-77
2023/12/23 03:36:22;;;;;;;5.70;1.80;;;;;;;0.90;72.06;97515.02;222705;1232;61254;-77
2023/12/23 03:41:13;;;;;;;2.70;1.20;;;;;;;0.89;72.31;97521.14;222394;1228;61328;-77
2023/12/23 03:46:05;;;;;;;6.70;1.70;;;;;;;0.88;72.37;97536.84;222638;1234;61220;-77
2023/12/23 03:50:56;;;;;;;5.30;1.90;;;;;;;0.88;72.09;97551.84;222417;1233;61302;-77
2023/12/23 03:55:48;;;;;;;4.40;2.20;;;;;;;0.87;72.09;97555.41;222620;1229;61237;-77
2023/12/23 04:00:40;;;;;;;12.00;1.90;;;;;;;0.86;72.07;97556.09;222623;1229;74536;-78
2023/12/23 04:05:32;;;;;;;5.40;1.80;;;;;;;0.86;72.36;97563.42;222377;1234;61239;-78
2023/12/23 04:10:23;;;;;;;5.40;1.70;;;;;;;0.86;72.31;97575.87;222374;1229;61200;-77
2023/12/23 04:15:15;;;;;;;6.90;2.70;;;;;;;0.86;72.20;97586.27;222274;1229;73407;-77
2023/12/23 04:20:07;;;;;;;5.50;1.70;;;;;;;0.85;72.19;97597.02;222481;1229;61950;-77
2023/12/23 04:24:59;;;;;;;3.30;1.80;;;;;;;0.84;72.63;97610.98;222451;1234;61241;-76
2023/12/23 04:29:51;;;;;;;6.70;2.30;;;;;;;0.83;72.52;97612.86;222372;1228;61234;-77
2023/12/23 04:34:42;;;;;;;7.30;1.90;;;;;;;0.82;72.72;97618.14;222446;1228;61299;-77
2023/12/23 04:39:34;;;;;;;6.30;1.60;;;;;;;0.79;72.44;97624.77;222493;1228;61401;-76
2023/12/23 04:44:27;;;;;;;1.90;1.10;;;;;;;0.77;72.81;97633.12;222655;1229;65668;-77
2023/12/23 04:49:19;;;;;;;4.00;1.10;;;;;;;0.75;72.54;97634.81;222487;1228;61270;-77
2023/12/23 04:54:12;;;;;;;4.00;1.40;;;;;;;0.74;72.52;97643.84;222375;1228;61229;-77
2023/12/23 04:59:04;;;;;;;7.50;1.50;;;;;;;0.71;72.24;97649.27;222343;1228;61242;-77
2023/12/23 05:03:55;;;;;;;2.40;1.20;;;;;;;0.68;72.62;97662.88;222288;1234;61313;-77
2023/12/23 05:08:47;;;;;;;7.20;1.70;;;;;;;0.65;72.48;97672.77;222649;1233;70587;-77
2023/12/23 05:13:38;;;;;;;4.10;2.90;;;;;;;0.62;72.65;97682.11;222611;1228;61296;-77
2023/12/23 05:18:30;;;;;;;3.50;1.80;;;;;;;0.58;72.61;97698.27;222403;1228;61263;-77
2023/12/23 05:23:21;;;;;;;5.20;1.10;;;;;;;0.52;72.48;97696.86;222677;1228;61199;-77
2023/12/23 05:28:12;;;;;;;4.60;1.20;;;;;;;0.47;72.71;97704.48;222669;1234;61256;-77
2023/12/23 05:33:04;;;;;;;5.30;1.10;;;;;;;0.45;72.89;97718.25;222487;1233;61261;-77
2023/12/23 05:37:57;;;;;;;7.30;1.60;;;;;;;0.44;72.89;97726.27;222578;1228;67295;-77
2023/12/23 05:42:50;;;;;;;2.20;1.00;;;;;;;0.43;72.87;97735.63;222672;1229;61337;-76
2023/12/23 05:47:43;;;;;;;5.30;1.30;;;;;;;0.41;72.99;97745.16;222674;1228;61254;-77
2023/12/23 05:52:34;;;;;;;3.90;1.10;;;;;;;0.38;72.52;97749.55;222374;1228;61430;-77
2023/12/23 05:57:26;;;;;;;4.90;1.30;;;;;;;0.34;72.48;97758.21;222746;1228;61197;-77
2023/12/23 06:02:17;;;;;;;5.90;1.60;;;;;;;0.29;72.62;97760.04;222539;1234;72263;-77
2023/12/23 06:07:08;;;;;;;3.80;1.20;;;;;;;0.24;72.74;97766.45;222689;1228;61311;-77
2023/12/23 06:12:00;;;;;;;6.50;1.30;;;;;;;0.21;72.56;97778.69;222714;1228;61219;-77
2023/12/23 06:16:51;;;;;;;4.40;1.40;;;;;;;0.17;72.54;97785.80;222336;1228;61222;-77
2023/12/23 06:21:46;;;;;;;4.20;1.10;;;;;;;0.14;72.66;97792.58;222693;1228;61213;-77
2023/12/23 06:26:37;;;;;;;2.70;1.20;;;;;;;0.14;72.59;97800.06;222672;1228;61315;-77
2023/12/23 06:31:29;;;;;;;4.70;0.80;;;;;;;0.17;72.33;97803.34;222617;1228;61242;-76
2023/12/23 06:36:20;;;;;;;2.20;1.20;;;;;;;0.19;72.30;97810.86;222543;1228;61315;-76
2023/12/23 06:41:12;;;;;;;4.10;1.40;;;;;;;0.17;72.28;97817.83;222639;1228;74444;-77
2023/12/23 06:46:04;;;;;;;3.40;1.00;;;;;;;0.16;72.13;97825.64;222606;1233;61228;-77
2023/12/23 06:50:55;;;;;;;3.80;1.20;;;;;;;0.19;72.20;97832.83;222694;1228;61699;-77
2023/12/23 06:55:47;;;;;;;7.40;1.50;;;;;;;0.23;72.38;97843.79;222648;1233;71199;-76
2023/12/23 07:00:38;;;;;;;9.30;1.90;;;;;;;0.28;72.57;97846.23;222577;1228;61309;-76
2023/12/23 07:05:29;;;;;;;6.80;2.40;;;;;;;0.32;72.46;97852.25;222698;1233;61404;-76
2023/12/23 07:10:21;;;;;;;2.90;1.50;;;;;;;0.36;72.45;97858.77;222637;1233;61222;-76
2023/12/23 07:15:12;;;;;;;3.70;1.10;;;;;;;0.40;72.27;97863.23;222654;1228;61223;-77
2023/12/23 07:20:08;;;;;;;8.30;1.60;;;;;;;0.43;72.27;97864.30;222653;1228;61241;-76
2023/12/23 07:25:05;;;;;;;4.70;1.70;;;;;;;0.47;71.98;97871.48;222517;1228;66985;-75
2023/12/23 07:30:00;;;;;;;3.00;0.80;;;;;;;0.51;71.71;97875.13;222565;1228;61279;-77
2023/12/23 07:34:51;;;;;;;2.70;1.10;;;;;;;0.56;72.01;97877.73;222523;1228;61241;-77
2023/12/23 07:39:44;;;;;;;7.10;1.30;;;;;;;0.60;71.99;97890.73;222516;1233;61318;-78
2023/12/23 07:44:36;;;;;;;6.80;1.50;;;;;;;0.64;71.74;97898.46;222540;1228;61296;-78
2023/12/23 07:49:28;;;;;;;5.60;1.40;;;;;;;0.76;71.38;97905.73;222555;1228;61245;-77
2023/12/23 07:54:19;;;;;;;2.80;1.00;;;;;;;0.84;71.51;97912.14;222474;1228;61292;-78
2023/12/23 07:59:11;;;;;;;2.90;1.00;;;;;;;0.88;71.18;97911.48;222730;1228;61187;-78
2023/12/23 08:04:03;;;;;;;8.10;1.60;;;;;;;0.93;71.16;97914.79;222482;1228;61331;-78
2023/12/23 08:08:54;;;;;;;3.80;1.90;;;;;;;0.93;71.31;97916.50;222526;1228;65594;-78
2023/12/23 08:13:46;;;;;;;2.80;1.80;;;;;;;0.97;71.29;97922.16;222279;1228;61940;-78
2023/12/23 08:18:37;;;;;;;4.70;1.60;;;;;;;0.99;70.50;97925.42;222398;1233;61203;-77
2023/12/23 08:23:29;;;;;;;4.10;1.70;;;;;;;1.03;70.93;97926.67;222287;1233;61264;-78
2023/12/23 08:28:20;;;;;;;8.00;1.90;;;;;;;1.09;70.96;97930.83;222376;1233;61439;-78
2023/12/23 08:33:12;;;;;;;6.80;2.50;;;;;;;1.08;70.86;97936.96;222484;1228;61244;-78
2023/12/23 08:38:06;;;;;;;7.50;1.90;;;;;;;1.09;70.83;97938.33;222464;1228;74206;-75
2023/12/23 08:42:58;;;;;;;8.90;2.30;;;;;;;1.16;70.65;97947.27;222221;1229;73533;-76
2023/12/23 08:47:49;;;;;;;9.00;1.70;;;;;;;1.18;70.40;97946.78;222183;1228;61254;-77
2023/12/23 08:52:41;;;;;;;7.10;1.60;;;;;;;1.37;69.97;97957.20;222563;1229;61257;-77
2023/12/23 08:57:34;;;;;;;4.20;1.30;;;;;;;1.47;70.61;97956.45;222328;1228;61597;-78
2023/12/23 09:02:25;;;;;;;5.00;2.10;;;;;;;1.46;70.61;97958.98;223601;1228;61351;-78
2023/12/23 09:07:19;;;;;;;7.10;1.50;;;;;;;1.34;70.23;97966.22;222509;1229;61254;-77
2023/12/23 09:12:11;;;;;;;3.30;1.70;;;;;;;1.29;70.54;97964.80;222571;1228;61250;-78
2023/12/23 09:17:02;;;;;;;5.60;1.30;;;;;;;1.29;70.63;97970.28;222562;1228;61392;-79
2023/12/23 09:22:05;;;;;;;2.90;1.50;;;;;;;1.29;70.54;97972.14;222227;1232;72677;-76
2023/12/23 09:26:57;;;;;;;6.70;1.90;;;;;;;1.38;70.81;97965.23;222555;1228;70986;-76
2023/12/23 09:31:50;;;;;;;6.80;1.90;;;;;;;1.44;70.15;97962.39;222487;1233;61670;-76
2023/12/23 09:36:41;;;;;;;6.20;1.80;;;;;;;1.40;70.38;97959.77;222449;1228;61248;-75
2023/12/23 09:41:54;;;;;;;3.70;1.60;;;;;;;1.42;70.28;97958.95;222594;1233;61293;-75
2023/12/23 09:47:29;;;;;;;5.10;1.60;;;;;;;1.60;70.13;97952.98;222526;1228;66216;-75
2023/12/23 09:53:19;;;;;;;3.20;1.90;;;;;;;1.83;69.69;97957.08;222345;1233;61257;-76
2023/12/23 10:11:19;;;;;;;5.20;1.70;;;;;;;1.80;70.18;97945.09;222475;1228;61481;-77
2023/12/23 10:23:37;;;;;;;;;;;;;;;;;;;;;
2023/12/23 11:20:16;;;;;;;2.60;2.00;;;;;;;1.28;74.31;97953.02;216199;1260;220784;-76
2023/12/23 11:40:12;;;;;;;;;;;;;;;;;;;;;
2023/12/23 11:45:30;;;;;;;6.20;2.80;;;;;;;2.54;72.86;97948.62;220727;1236;61452;-77
2023/12/23 12:03:21;;;;;;;6.40;2.00;;;;;;;2.25;72.67;97950.69;220232;1239;72475;-77
2023/12/23 12:21:58;;;;;;;5.30;1.80;;;;;;;2.06;73.02;97950.08;220825;1238;65273;-77
2023/12/23 12:57:45;;;;;;;4.30;2.20;;;;;;;1.28;73.91;97981.02;220224;1240;61418;-77
2023/12/23 13:08:55;;;;;;;7.80;2.60;;;;;;;1.14;73.76;97987.86;221597;1228;70281;-78
2023/12/23 13:14:30;;;;;;;5.00;2.20;;;;;;;1.08;73.69;97997.70;222393;1233;61300;-77
2023/12/23 13:19:43;;;;;;;4.60;2.70;;;;;;;1.03;73.93;98010.77;222461;1228;67790;-77
2023/12/23 13:24:50;;;;;;;3.40;1.90;;;;;;;1.03;73.31;98012.64;222432;1233;61213;-77
2023/12/23 13:29:57;;;;;;;9.70;2.10;;;;;;;0.98;73.01;98020.95;222465;1228;75653;-77
2023/12/23 13:34:56;;;;;;;1.80;1.40;;;;;;;0.92;72.74;98021.90;222518;1228;72681;-77
2023/12/23 13:39:55;;;;;;;3.70;2.30;;;;;;;0.87;72.38;98025.07;222574;1228;61306;-77
2023/12/23 13:45:11;;;;;;;3.60;1.30;;;;;;;0.83;71.75;98026.39;222263;1228;66418;-77
2023/12/23 13:50:08;;;;;;;3.10;1.60;;;;;;;0.80;71.82;98035.55;222535;1228;61322;-77
2023/12/23 13:55:12;;;;;;;4.10;1.90;;;;;;;0.80;71.56;98044.94;222475;1228;74165;-78
2023/12/23 14:00:08;;;;;;;4.10;2.10;;;;;;;0.73;71.58;98054.57;222412;1228;71681;-77
2023/12/23 14:05:00;;;;;;;4.30;1.90;;;;;;;0.65;71.67;98056.84;222443;1233;61425;-77
2023/12/23 14:09:51;;;;;;;4.40;1.50;;;;;;;0.55;71.27;98063.87;222358;1228;61324;-78
2023/12/23 14:14:45;;;;;;;3.90;1.70;;;;;;;0.47;71.18;98064.60;222529;1228;61414;-78
2023/12/23 14:19:53;;;;;;;4.10;1.30;;;;;;;0.40;70.86;98070.45;222475;1228;74490;-78
2023/12/23 14:31:00;;;;;;;2.80;1.30;;;;;;;0.28;71.27;98083.39;222341;1228;61353;-77
2023/12/23 14:43:45;;;;;;;4.30;1.90;;;;;;;0.13;71.56;98100.52;222322;1228;61204;-78
2023/12/23 15:58:05;;;;;;;6.40;2.90;;;;;;;-0.36;74.34;98203.52;219726;1242;72126;-82
2023/12/23 16:10:05;;;;;;;;;;;;;;;;;;;;;
2023/12/23 16:22:18;;;;;;;6.50;3.80;;;;;;;-0.47;75.48;98242.95;221940;1233;74953;-79
2023/12/23 16:34:11;;;;;;;;;;;;;;;;;;;;;
2023/12/23 16:52:04;;;;;;;;;;;;;;;-0.53;77.25;98280.59;222680;1228;73452;-85
2023/12/23 17:09:13;;;;;;;6.70;4.00;;;;;;;-0.53;77.36;98304.25;220911;1236;67213;-82
2023/12/23 17:15:31;;;;;;;10.60;3.50;;;;;;;-0.54;77.48;98320.55;220960;1235;61251;-82
2023/12/23 17:33:14;;;;;;;;;;;;;;;;;;;;;
2023/12/23 17:39:24;;;;;;;12.00;4.80;;;;;;;-0.60;78.10;98349.20;221308;1238;66572;-81
2023/12/23 17:51:01;;;;;;;;;;;;;;;;;;;;;
2023/12/23 17:56:55;;;;;;;7.80;3.60;;;;;;;-0.65;78.18;98373.55;220373;1237;72749;-81
2023/12/23 18:09:07;;;;;;;;;;;;;;;;;;;;;
2023/12/23 18:20:41;;;;;;;;;;;;;;;;;;;;;
2023/12/23 18:26:43;;;;;;;5.90;3.20;;;;;;;-0.76;78.48;98404.94;217028;1253;71792;-81
2023/12/23 18:32:17;;;;;;;6.70;3.50;;;;;;;-0.79;78.51;98420.20;218061;1245;61276;-82
2023/12/23 18:50:34;;;;;;;10.50;4.30;;;;;;;-0.89;79.01;98443.58;220661;1237;74393;-83
2023/12/23 19:09:32;;;;;;;;;;;;;;;;;;;;;
2023/12/23 19:27:20;;;;;;;7.80;3.80;;;;;;;-1.04;79.88;98504.90;218745;1249;73592;-82
2023/12/23 19:39:26;;;;;;;;;;;;;;;;;;;;;
2023/12/23 19:44:27;;;;;;;11.70;4.20;;;;;;;-0.97;80.40;98509.19;218804;1245;61286;-84
2023/12/23 19:50:06;;;;;;;6.30;3.20;;;;;;;-0.97;80.46;98521.08;218976;1246;75693;-84
2023/12/23 19:55:20;;;;;;;6.50;4.00;;;;;;;-0.98;80.33;98526.00;219174;1241;71799;-84
2023/12/23 20:06:47;;;;;;;9.40;5.40;;;;;;;-0.86;80.73;98541.30;219569;1240;66996;-84
2023/12/23 20:17:28;;;;;;;13.10;6.90;;;;;;;-0.76;80.77;98553.98;221281;1237;74484;-84
2023/12/23 20:23:08;;;;;;;;;;;;;;;-0.72;81.01;98560.71;220983;1235;71758;-83
2023/12/23 20:28:34;;;;;;;7.90;3.70;;;;;;;-0.67;81.25;98574.09;221563;1231;61966;-83
2023/12/23 20:39:21;;;;;;;8.70;4.10;;;;;;;-0.50;81.13;98588.85;220775;1237;61211;-83
2023/12/23 20:57:12;;;;;;;8.60;5.20;;;;;;;-0.58;81.04;98599.02;219757;1240;61236;-83
2023/12/23 21:02:40;;;;;;;;;;;;;;;;;;;;;
2023/12/23 21:14:21;;;;;;;8.90;5.40;;;;;;;-0.68;81.57;98623.95;220559;1235;75344;-83
2023/12/23 21:20:05;;;;;;;;;;;;;;;-0.67;81.54;98630.08;220793;1239;73599;-83
2023/12/23 21:25:31;;;;;;;9.90;5.40;;;;;;;-0.72;81.69;98634.38;221382;1229;61242;-83
2023/12/23 21:30:59;;;;;;;8.20;5.20;;;;;;;-0.76;81.71;98636.14;222072;1228;67166;-82
2023/12/23 21:36:25;;;;;;;8.50;6.00;;;;;;;-0.79;81.98;98637.77;222232;1229;61277;-82
2023/12/23 21:41:40;;;;;;;12.60;6.50;;;;;;;-0.79;81.77;98646.79;222314;1229;76419;-82
2023/12/23 21:52:46;;;;;;;;;;;;;;;;;;;;;
2023/12/23 22:03:37;;;;;;;11.50;7.10;;;;;;;-0.77;82.25;98639.52;222236;1233;61264;-83
2023/12/23 22:09:07;;;;;;;15.20;7.30;;;;;;;-0.76;82.70;98639.55;222198;1229;74722;-82
2023/12/23 22:15:09;;;;;;;13.00;7.70;;;;;;;-0.74;82.68;98639.92;222292;1233;70028;-82
2023/12/23 22:20:42;;;;;;;17.40;8.20;;;;;;;-0.74;82.60;98648.77;222299;1232;61223;-83
2023/12/23 22:25:57;;;;;;;10.50;6.90;;;;;;;-0.68;83.01;98652.17;222112;1234;69385;-82
2023/12/23 22:31:30;;;;;;;13.20;8.00;;;;;;;-0.56;82.99;98662.89;221963;1228;61205;-82
2023/12/23 22:36:45;;;;;;;13.00;8.10;;;;;;;-0.43;82.94;98656.83;222130;1228;73079;-83
2023/12/23 22:42:01;;;;;;;14.60;8.10;;;;;;;-0.28;83.07;98661.64;222119;1228;72790;-82
2023/12/23 22:53:06;;;;;;;12.90;7.90;;;;;;;-0.06;83.03;98680.28;222165;1233;67479;-82
2023/12/23 22:59:02;;;;;;;13.90;6.60;;;;;;;0.05;82.97;98686.52;222250;1232;61326;-82
2023/12/23 23:04:14;;;;;;;11.20;6.60;;;;;;;0.13;82.98;98687.25;222322;1228;75039;-82
2023/12/23 23:09:35;;;;;;;12.50;6.90;;;;;;;0.19;82.95;98697.80;222360;1228;71009;-83
2023/12/23 23:14:53;;;;;;;13.20;5.90;;;;;;;0.26;82.67;98694.06;221617;1228;61331;-82
2023/12/23 23:19:57;;;;;;;10.90;5.30;;;;;;;0.31;82.67;98691.46;222183;1229;142203;-82
2023/12/23 23:30:57;;;;;;;11.20;5.20;;;;;;;0.39;82.70;98698.80;222315;1228;75488;-82
2023/12/23 23:42:11;;;;;;;8.80;5.40;;;;;;;0.42;82.76;98713.05;222072;1230;61252;-83
2023/12/23 23:47:19;;;;;;;12.80;5.90;;;;;;;0.44;82.94;98719.73;222029;1229;66929;-84
2023/12/23 23:52:47;;;;;;;13.50;5.10;;;;;;;0.48;82.72;98728.52;222414;1228;61089;-83
2023/12/23 23:57:51;;;;;;;14.30;7.30;;;;;;;0.50;82.48;98729.08;222521;1234;74985;-84
